createdAt,value
2023-04-15T00:00:34.043Z,76.95
2023-04-15T00:04:15.592Z,76.91
2023-04-15T00:07:42.710Z,77.02
2023-04-15T00:11:09.652Z,77.28
2023-04-15T00:14:36.805Z,77.34
2023-04-15T00:18:04.600Z,77.13
2023-04-15T00:21:32.625Z,77.22
2023-04-15T00:24:59.609Z,77.34
2023-04-15T00:28:26.865Z,77.56
2023-04-15T00:31:54.075Z,77.60
2023-04-15T00:35:21.793Z,77.79
2023-04-15T00:38:49.105Z,78.22
2023-04-15T00:42:16.498Z,78.25
2023-04-15T00:45:43.564Z,78.32
2023-04-15T00:49:11.346Z,78.08
2023-04-15T00:52:38.275Z,78.41
2023-04-15T00:56:05.587Z,78.34
2023-04-15T00:59:34.637Z,78.67
2023-04-15T01:03:02.320Z,78.57
2023-04-15T01:06:29.779Z,78.43
2023-04-15T01:09:57.320Z,78.51
2023-04-15T01:13:25.296Z,78.77
2023-04-15T01:16:53.875Z,79.19
2023-04-15T01:20:22.190Z,79.40
2023-04-15T01:23:50.405Z,79.27
2023-04-15T01:27:17.349Z,79.57
2023-04-15T01:30:44.708Z,79.23
2023-04-15T01:34:12.320Z,79.55
2023-04-15T01:37:39.541Z,79.53
2023-04-15T01:41:07.718Z,79.80
2023-04-15T01:44:34.759Z,79.87
2023-04-15T01:48:02.399Z,80.20
2023-04-15T01:51:29.544Z,80.19
2023-04-15T01:54:57.160Z,80.22
2023-04-15T01:58:24.022Z,79.97
2023-04-15T02:01:50.967Z,80.14
2023-04-15T02:05:18.052Z,80.49
2023-04-15T02:08:45.957Z,80.28
2023-04-15T02:12:12.992Z,80.74
2023-04-15T02:15:40.050Z,80.66
2023-04-15T02:19:07.974Z,81.06
2023-04-15T02:22:37.653Z,81.35
2023-04-15T02:26:04.683Z,81.23
2023-04-15T02:29:32.700Z,80.92
2023-04-15T02:33:01.372Z,81.16
2023-04-15T02:36:29.809Z,81.11
2023-04-15T02:39:56.720Z,81.45
2023-04-15T02:43:23.874Z,81.72
2023-04-15T02:46:52.767Z,81.64
2023-04-15T02:50:23.567Z,81.58
2023-04-15T02:53:50.886Z,81.77
2023-04-15T02:57:18.135Z,82.04
2023-04-15T03:00:45.188Z,82.18
2023-04-15T03:04:12.036Z,82.94
2023-04-15T03:07:40.421Z,83.22
2023-04-15T03:11:08.520Z,83.61
2023-04-15T03:14:36.553Z,84.19
2023-04-15T03:18:03.698Z,84.02
2023-04-15T03:21:30.824Z,84.98
2023-04-15T03:24:58.162Z,85.47
2023-04-15T03:28:25.083Z,85.56
2023-04-15T03:31:53.083Z,85.32
2023-04-15T03:35:20.428Z,86.23
2023-04-15T03:38:47.241Z,86.20
2023-04-15T03:42:14.165Z,86.00
2023-04-15T03:45:41.080Z,86.78
2023-04-15T03:49:10.090Z,86.74
2023-04-15T03:52:36.899Z,88.10
2023-04-15T03:56:03.712Z,88.06
2023-04-15T03:59:30.697Z,88.12
2023-04-15T04:02:57.910Z,88.12
2023-04-15T04:06:25.019Z,89.55
2023-04-15T04:09:51.997Z,89.29
2023-04-15T04:13:18.886Z,89.05
2023-04-15T04:16:45.904Z,89.04
2023-04-15T04:20:13.815Z,89.19
2023-04-15T04:23:40.718Z,89.73
2023-04-15T04:27:08.102Z,89.91
2023-04-15T04:30:36.564Z,89.71
2023-04-15T04:34:03.575Z,90.49
2023-04-15T04:37:30.800Z,91.44
2023-04-15T04:40:57.631Z,92.32
2023-04-15T04:44:24.439Z,92.18
2023-04-15T04:47:51.742Z,91.14
2023-04-15T04:51:19.047Z,92.17
2023-04-15T04:54:45.998Z,93.13
2023-04-15T04:58:13.221Z,93.76
2023-04-15T05:01:40.160Z,92.87
2023-04-15T05:05:08.916Z,92.93
2023-04-15T05:08:36.956Z,92.78
2023-04-15T05:12:05.573Z,93.15
2023-04-15T05:15:33.091Z,93.64
2023-04-15T05:19:00.079Z,93.80
2023-04-15T05:22:27.347Z,93.82
2023-04-15T05:25:54.243Z,94.68
2023-04-15T05:29:21.046Z,95.27
2023-04-15T05:32:47.979Z,95.37
2023-04-15T05:36:14.904Z,95.89
2023-04-15T05:39:42.501Z,95.37
2023-04-15T05:43:09.556Z,96.08
2023-04-15T05:46:36.383Z,95.81
2023-04-15T05:50:03.431Z,95.99
2023-04-15T05:53:30.399Z,96.51
2023-04-15T05:56:57.606Z,96.68
2023-04-15T06:00:24.785Z,96.50
2023-04-15T06:03:51.836Z,96.64
2023-04-15T06:07:18.819Z,97.70
2023-04-15T06:10:46.183Z,97.24
2023-04-15T06:14:13.171Z,97.55
2023-04-15T06:17:40.160Z,97.56
2023-04-15T06:21:08.079Z,97.32
2023-04-15T06:24:34.753Z,97.61
2023-04-15T06:28:02.112Z,97.55
2023-04-15T06:31:29.469Z,97.67
2023-04-15T06:34:56.444Z,98.04
2023-04-15T06:38:23.408Z,98.55
2023-04-15T06:41:50.135Z,98.94
2023-04-15T06:45:19.559Z,98.49
2023-04-15T06:48:46.514Z,98.08
2023-04-15T06:52:13.758Z,98.17
2023-04-15T06:55:41.509Z,98.33
2023-04-15T06:59:08.806Z,98.15
2023-04-15T07:02:35.768Z,98.39
2023-04-15T07:06:06.665Z,98.52
2023-04-15T07:09:34.368Z,98.65
2023-04-15T07:13:01.858Z,98.86
2023-04-15T07:16:29.957Z,97.98
2023-04-15T07:19:57.066Z,97.71
2023-04-15T07:23:24.124Z,97.21
2023-04-15T07:26:51.166Z,96.91
2023-04-15T07:30:18.056Z,97.41
2023-04-15T07:33:44.894Z,98.33
2023-04-15T07:37:12.133Z,97.48
2023-04-15T07:40:39.279Z,97.36
2023-04-15T07:44:06.820Z,96.95
2023-04-15T07:47:33.922Z,97.28
2023-04-15T07:51:00.782Z,97.49
2023-04-15T07:54:28.514Z,97.11
2023-04-15T07:57:55.896Z,96.92
2023-04-15T08:01:22.753Z,97.91
2023-04-15T08:04:49.713Z,97.04
2023-04-15T08:08:16.858Z,96.62
2023-04-15T08:11:43.906Z,97.10
2023-04-15T08:15:13.162Z,96.61
2023-04-15T08:18:40.151Z,96.78
2023-04-15T08:22:10.817Z,97.21
2023-04-15T08:25:44.499Z,96.55
2023-04-15T08:29:11.452Z,96.85
2023-04-15T08:32:38.682Z,97.63
2023-04-15T08:36:06.613Z,96.99
2023-04-15T08:39:33.774Z,96.81
2023-04-15T08:43:03.202Z,97.36
2023-04-15T08:46:31.474Z,96.70
2023-04-15T08:50:00.593Z,96.33
2023-04-15T08:53:30.595Z,96.44
2023-04-15T08:57:00.843Z,96.36
2023-04-15T09:00:30.427Z,96.29
2023-04-15T09:04:01.209Z,96.31
2023-04-15T09:07:31.342Z,96.15
2023-04-15T09:11:00.826Z,96.28
2023-04-15T09:14:32.408Z,96.13
2023-04-15T09:18:04.615Z,95.90
2023-04-15T09:21:35.882Z,95.80
2023-04-15T09:25:04.406Z,95.90
2023-04-15T09:28:33.581Z,95.51
2023-04-15T09:32:16.144Z,95.14
2023-04-15T09:35:46.516Z,95.29
2023-04-15T09:39:21.035Z,95.34
2023-04-15T09:43:05.550Z,94.53
2023-04-15T09:46:49.178Z,92.71
2023-04-15T09:50:19.726Z,92.03
2023-04-15T09:53:46.883Z,91.74
2023-04-15T09:57:13.657Z,91.90
2023-04-15T10:00:40.860Z,91.80
2023-04-15T10:04:09.780Z,91.54
2023-04-15T10:07:37.088Z,91.35
2023-04-15T10:11:05.308Z,90.99
2023-04-15T10:14:39.464Z,90.50
2023-04-15T10:18:09.171Z,90.04
2023-04-15T10:21:35.139Z,90.39
2023-04-15T10:25:04.416Z,90.13
2023-04-15T10:28:31.538Z,89.69
2023-04-15T10:32:00.126Z,89.34
2023-04-15T10:35:28.004Z,89.30
2023-04-15T10:38:55.076Z,88.96
2023-04-15T10:42:22.633Z,88.88
2023-04-15T10:45:50.737Z,88.55
2023-04-15T10:49:25.484Z,88.39
2023-04-15T10:52:55.224Z,88.17
2023-04-15T10:56:20.580Z,88.29
2023-04-15T11:00:15.014Z,87.86
2023-04-15T11:03:44.460Z,86.92
2023-04-15T11:07:11.694Z,86.23
2023-04-15T11:10:55.239Z,85.82
2023-04-15T11:14:22.394Z,85.03
2023-04-15T11:17:50.056Z,84.75
2023-04-15T11:21:17.536Z,85.05
2023-04-15T11:24:51.981Z,84.93
2023-04-15T11:28:18.780Z,84.68
2023-04-15T11:31:49.983Z,84.10
2023-04-15T11:35:17.335Z,83.66
2023-04-15T11:38:47.872Z,83.05
2023-04-15T11:42:21.582Z,82.59
2023-04-15T11:45:54.931Z,82.34
2023-04-15T11:49:34.187Z,82.12
2023-04-15T11:53:03.402Z,82.25
2023-04-15T11:56:32.564Z,82.76
2023-04-15T12:00:01.237Z,82.43
2023-04-15T12:03:31.248Z,82.12
2023-04-15T12:07:07.913Z,82.00
2023-04-15T12:10:37.049Z,81.91
2023-04-15T12:14:09.325Z,81.84
2023-04-15T12:17:51.694Z,82.23
2023-04-15T12:21:21.768Z,82.16
2023-04-15T12:24:49.609Z,82.06
2023-04-15T12:28:18.770Z,82.23
2023-04-15T12:31:56.082Z,82.51
2023-04-15T12:35:23.054Z,82.87
2023-04-15T12:38:49.953Z,82.83
2023-04-15T12:42:18.179Z,83.01
2023-04-15T12:45:45.207Z,82.56
2023-04-15T12:49:12.093Z,82.75
2023-04-15T12:52:38.950Z,82.96
2023-04-15T12:56:06.592Z,83.25
2023-04-15T12:59:33.543Z,83.19
2023-04-15T13:03:00.530Z,83.68
2023-04-15T13:06:29.181Z,83.94
2023-04-15T13:09:56.952Z,84.05
2023-04-15T13:13:23.829Z,84.01
2023-04-15T13:16:50.918Z,83.99
2023-04-15T13:20:18.692Z,83.93
2023-04-15T13:23:45.921Z,83.88
2023-04-15T13:27:12.965Z,83.46
2023-04-15T13:30:40.518Z,83.38
2023-04-15T13:34:07.841Z,83.16
2023-04-15T13:37:35.411Z,83.16
2023-04-15T13:41:02.468Z,82.58
2023-04-15T13:44:29.604Z,82.23
2023-04-15T13:47:56.776Z,81.92
2023-04-15T13:51:23.983Z,81.53
2023-04-15T13:55:08.350Z,81.43
2023-04-15T13:58:38.738Z,81.51
2023-04-15T14:02:06.672Z,81.46
2023-04-15T14:05:35.325Z,81.76
2023-04-15T14:09:02.603Z,81.23
2023-04-15T14:12:30.114Z,81.25
2023-04-15T14:15:58.472Z,81.08
2023-04-15T14:19:26.648Z,80.89
2023-04-15T14:22:53.755Z,80.85
2023-04-15T14:26:21.611Z,80.80
2023-04-15T14:29:48.484Z,80.84
2023-04-15T14:33:15.645Z,81.16
2023-04-15T14:36:42.911Z,81.03
2023-04-15T14:40:11.986Z,80.98
2023-04-15T14:43:39.221Z,81.26
2023-04-15T14:47:07.091Z,81.23
2023-04-15T14:50:34.082Z,81.29
2023-04-15T14:54:01.256Z,81.36
2023-04-15T14:57:28.401Z,81.64
2023-04-15T15:00:55.478Z,81.89
2023-04-15T15:04:22.288Z,81.95
2023-04-15T15:07:49.465Z,82.28
2023-04-15T15:11:17.033Z,82.59
2023-04-15T15:14:44.132Z,82.85
2023-04-15T15:18:11.381Z,83.04
2023-04-15T15:21:41.195Z,83.21
2023-04-15T15:25:09.444Z,83.76
2023-04-15T15:28:36.648Z,84.30
2023-04-15T15:32:04.023Z,84.74
2023-04-15T15:35:31.118Z,85.20
2023-04-15T15:38:59.641Z,85.73
2023-04-15T15:42:26.842Z,85.83
2023-04-15T15:45:55.587Z,86.09
2023-04-15T15:49:22.667Z,85.92
2023-04-15T15:52:51.965Z,86.07
2023-04-15T15:56:22.301Z,86.25
2023-04-15T15:59:53.105Z,86.30
2023-04-15T16:03:27.146Z,86.20
2023-04-15T16:06:58.452Z,86.35
2023-04-15T16:10:28.713Z,86.45
2023-04-15T16:14:01.103Z,86.26
2023-04-15T16:17:32.153Z,86.32
2023-04-15T16:21:02.681Z,86.31
2023-04-15T16:24:34.985Z,86.29
2023-04-15T16:28:11.784Z,86.24
2023-04-15T16:31:49.632Z,86.35
2023-04-15T16:35:19.236Z,86.42
2023-04-15T16:38:48.730Z,86.59
2023-04-15T16:42:15.251Z,86.43
2023-04-15T16:45:45.260Z,86.32
2023-04-15T16:49:14.191Z,86.48
2023-04-15T16:52:41.825Z,86.77
2023-04-15T16:56:10.349Z,86.71
2023-04-15T16:59:39.209Z,86.80
2023-04-15T17:03:06.960Z,86.67
2023-04-15T17:06:34.859Z,86.43
2023-04-15T17:10:05.106Z,86.47
2023-04-15T17:13:37.992Z,86.51
2023-04-15T17:17:07.511Z,86.62
2023-04-15T17:20:34.455Z,86.86
2023-04-15T17:24:01.838Z,86.88
2023-04-15T17:27:29.964Z,86.93
2023-04-15T17:30:57.995Z,86.95
2023-04-15T17:34:27.561Z,87.29
2023-04-15T17:38:17.194Z,87.42
2023-04-15T17:41:48.491Z,87.74
2023-04-15T17:45:18.581Z,87.71
2023-04-15T17:48:48.227Z,88.09
2023-04-15T17:52:25.357Z,88.62
2023-04-15T17:55:55.729Z,89.42
2023-04-15T17:59:23.572Z,90.89
2023-04-15T18:02:53.713Z,90.77
2023-04-15T18:06:22.478Z,90.67
2023-04-15T18:09:50.785Z,90.72
2023-04-15T18:13:18.961Z,91.26
2023-04-15T18:16:46.674Z,91.20
2023-04-15T18:20:15.775Z,91.56
2023-04-15T18:23:48.063Z,91.98
2023-04-15T18:27:17.516Z,92.86
2023-04-15T18:30:45.411Z,92.79
2023-04-15T18:34:13.815Z,93.37
2023-04-15T18:37:40.932Z,93.11
2023-04-15T18:41:10.234Z,93.28
2023-04-15T18:44:38.548Z,93.52
2023-04-15T18:48:08.552Z,93.59
2023-04-15T18:51:35.997Z,94.25
2023-04-15T18:55:05.861Z,94.72
2023-04-15T18:59:18.288Z,95.42
2023-04-15T19:02:23.949Z,95.79
2023-04-15T19:05:53.877Z,95.63
2023-04-15T19:09:22.463Z,95.72
2023-04-15T19:12:51.310Z,96.12
2023-04-15T19:16:19.939Z,95.65
2023-04-15T19:19:47.331Z,95.30
2023-04-15T19:23:15.222Z,95.14
2023-04-15T19:26:45.585Z,94.95
2023-04-15T19:30:13.463Z,94.68
2023-04-15T19:33:41.329Z,94.53
2023-04-15T19:37:08.863Z,94.21
2023-04-15T19:40:35.938Z,94.16
2023-04-15T19:44:04.619Z,94.12
2023-04-15T19:47:31.627Z,94.07
2023-04-15T19:50:59.852Z,93.83
2023-04-15T19:54:27.029Z,94.08
2023-04-15T19:57:54.112Z,93.90
2023-04-15T20:01:21.560Z,93.98
2023-04-15T20:04:49.280Z,93.90
2023-04-15T20:08:16.552Z,93.82
2023-04-15T20:12:45.606Z,93.90
2023-04-15T20:15:30.620Z,93.84
2023-04-15T20:18:59.603Z,93.86
2023-04-15T20:22:26.348Z,93.92
2023-04-15T20:25:53.228Z,93.88
2023-04-15T20:29:21.281Z,94.03
2023-04-15T20:32:48.503Z,93.99
2023-04-15T20:36:16.938Z,93.95
2023-04-15T20:39:44.235Z,94.04
2023-04-15T20:43:11.163Z,94.02
2023-04-15T20:46:38.265Z,94.20
2023-04-15T20:50:05.910Z,94.20
2023-04-15T20:53:32.947Z,94.38
2023-04-15T20:57:00.177Z,94.48
2023-04-15T21:00:27.559Z,94.50
2023-04-15T21:03:54.646Z,94.68
2023-04-15T21:07:21.648Z,94.63
2023-04-15T21:10:50.968Z,94.84
2023-04-15T21:14:18.145Z,94.79
2023-04-15T21:17:45.199Z,94.68
2023-04-15T21:21:12.213Z,94.76
2023-04-15T21:24:39.111Z,94.85
2023-04-15T21:28:06.441Z,94.98
2023-04-15T21:31:33.275Z,94.86
2023-04-15T21:35:00.175Z,94.88
2023-04-15T21:38:27.216Z,94.88
2023-04-15T21:41:54.046Z,95.01
2023-04-15T21:45:21.282Z,95.11
2023-04-15T21:48:48.397Z,95.09
2023-04-15T21:52:15.440Z,95.10
2023-04-15T21:55:42.405Z,95.17
2023-04-15T21:59:09.264Z,95.19
2023-04-15T22:02:37.849Z,95.21
2023-04-15T22:06:05.553Z,95.15
2023-04-15T22:09:32.386Z,95.28
2023-04-15T22:13:02.767Z,95.36
2023-04-15T22:16:30.498Z,95.26
2023-04-15T22:19:57.676Z,95.24
2023-04-15T22:23:24.846Z,95.17
2023-04-15T22:26:52.372Z,95.13
2023-04-15T22:30:20.555Z,95.17
2023-04-15T22:33:47.516Z,95.16
2023-04-15T22:37:14.616Z,95.32
2023-04-15T22:40:43.712Z,95.43
2023-04-15T22:44:12.838Z,95.58
2023-04-15T22:47:40.044Z,95.66
2023-04-15T22:51:07.731Z,95.78
2023-04-15T22:54:34.712Z,95.73
2023-04-15T22:58:01.837Z,95.86
2023-04-15T23:01:29.503Z,95.88
2023-04-15T23:04:57.097Z,96.04
2023-04-15T23:08:25.015Z,96.05
2023-04-15T23:11:52.247Z,96.06
2023-04-15T23:15:19.057Z,96.25
2023-04-15T23:18:45.973Z,96.28
2023-04-15T23:22:12.952Z,96.19
2023-04-15T23:25:42.184Z,96.28
2023-04-15T23:29:11.981Z,96.37
2023-04-15T23:32:39.389Z,96.45
2023-04-15T23:36:07.707Z,96.46
2023-04-15T23:39:34.705Z,96.46
2023-04-15T23:43:01.857Z,96.41
2023-04-15T23:46:28.909Z,96.37
2023-04-15T23:49:56.516Z,96.38
2023-04-15T23:53:23.508Z,96.48
2023-04-15T23:56:51.105Z,96.50
